Québec, Quebec

02:20 EST le 03 Mars 2015 (GMT -0500)
Ancienne-Lorette | Change Station
CLOSE
Current Station
Stations météorologiques personnelles
Location: LAncienne-Lorette, QUéBEC
Altitude: 187 ft
Stations météo à proximité

Alt. 187 ft 46.80 °N, 71.37 °W | Updated 4 minutes ago

Clear
Ciel dégagé
6.0 ° F
Paraît -2 ° F
N
4.0
Vent Variable Vent de ONO
Gusts 7.0 mph

Aujourd’hui il est prévu de faire pratiquement la même température qu’hier.

Aujourd'hui
Haut(e) -- | Bas -- ° F
--% Risque de précip.
Hier
Haut(e) -- | Bas -- ° F
Precip. -- pouce
6:21 AM 5:33 PM
Lune gibbeuse croissante, 95% visible
Pression 30.29 pouce
Visibilité 15.0 Miles terrestres
Nuages Ciel dégagé
Refroidissement éolien -2 ° F
Point de rosée -7 ° F
Humidité 55%
Précipitations 0.00 pouce
Profondeur de la couche neigeuse Non disponible.
UV 0 sur 12
Pollen Non disponible.
Qualité de l'air Non disponible.
Flu Activity Non disponible.
METAR CYQB 030700Z 25009KT 15SM SKC M15/M23 A3027 RMK SLP257

More Conditions Fewer Conditions

Pression 30.29 pouce
Visibilité 15.0 Miles terrestres
Nuages Ciel dégagé
Refroidissement éolien -2 ° F
Point de rosée -7 ° F
Humidité 55%
Précipitations 0.00 pouce
Profondeur de la couche neigeuse Non disponible.
UV 0 sur 12
Pollen Non disponible.
Qualité de l'air Non disponible.
Flu Activity Non disponible.
METAR CYQB 030700Z 25009KT 15SM SKC M15/M23 A3027 RMK SLP257

More Conditions Fewer Conditions

10-Day Weather Forecast

Almanac

Astronomie

Mar. 03, 2015 Lever Coucher
Temps réel
Crépuscule civil
Crépuscule nautique
Crépuscule astronomique
Lune
Durée de lumière visible
Longueur du jour
Tomorrow will be .
, % of the Moon is Illuminated

Extrêmes aujourd'hui

Country Highs Country Lows

Community

WunderPhotos

Upload Photos

1,802,073 Photos téléchargées !

WunderBlogs® & News

Nearby

Qualité de l'air

  Qualité de l'air Indice de la qualité de l'air Polluant
Not available.

Épaisseur de neige

Station Depth Altitude

Activité sismique

Ville Distance Mag. Time & Date
Minimum magnitude displayed is 2.5.

Températures des eaux côtières

Lieu Température

Stations météo à proximité